Time;durP1;ratioP1;P1;durP2;ratioP2;P2;SDS_P1;SDS_P2;PMS_P1;PMS_P2;Temp;Humidity;BMP_temperature;BMP_pressure;BME280_temperature;BME280_humidity;BME280_pressure;Samples;Min_cycle;Max_cycle;Signal;HPM_P1;HPM_P2
2023/12/07 00:01:13;;;;;;;16.02;9.32;;;;;;;-0.49;59.38;101761.81;5008893;28;20094;-69
2023/12/07 00:03:39;;;;;;;14.07;9.55;;;;;;;-0.46;59.25;101762.75;5012478;28;20033;-68
2023/12/07 00:06:04;;;;;;;14.90;9.18;;;;;;;-0.45;59.10;101755.91;5009570;28;20397;-68
2023/12/07 00:08:30;;;;;;;17.25;10.43;;;;;;;-0.48;58.91;101766.09;5022977;28;20500;-68
2023/12/07 00:10:55;;;;;;;14.45;9.10;;;;;;;-0.53;59.25;101762.59;5010780;28;20078;-68
2023/12/07 00:13:21;;;;;;;16.80;10.38;;;;;;;-0.56;58.94;101761.69;5008969;28;20061;-68
2023/12/07 00:15:46;;;;;;;17.20;10.20;;;;;;;-0.59;59.09;101753.94;5007837;28;20044;-68
2023/12/07 00:18:12;;;;;;;18.58;9.77;;;;;;;-0.52;59.16;101757.50;5011659;28;20045;-69
2023/12/07 00:20:37;;;;;;;15.20;9.20;;;;;;;-0.58;59.21;101760.78;5011427;28;20048;-68
2023/12/07 00:23:03;;;;;;;19.80;10.77;;;;;;;-0.56;59.17;101763.38;5009628;28;20045;-68
2023/12/07 00:25:28;;;;;;;16.85;9.80;;;;;;;-0.53;59.11;101762.59;5007052;28;20091;-68
2023/12/07 00:27:53;;;;;;;15.23;9.13;;;;;;;-0.53;59.16;101762.59;5009652;28;20029;-68
2023/12/07 00:30:19;;;;;;;13.80;9.55;;;;;;;-0.50;58.98;101773.78;5009609;28;20053;-67
2023/12/07 00:32:45;;;;;;;18.08;10.35;;;;;;;-0.48;58.72;101772.13;5011408;28;20482;-67
2023/12/07 00:35:11;;;;;;;16.85;10.10;;;;;;;-0.47;58.83;101773.00;5010372;28;21022;-66
2023/12/07 00:37:37;;;;;;;13.40;8.93;;;;;;;-0.44;58.66;101767.91;5008298;28;20061;-66
2023/12/07 00:40:03;;;;;;;19.48;9.90;;;;;;;-0.52;58.64;101767.75;5010134;28;20538;-65
2023/12/07 00:42:29;;;;;;;18.50;9.70;;;;;;;-0.92;60.12;101774.63;5007509;28;20177;-66
2023/12/07 00:44:55;;;;;;;16.83;11.05;;;;;;;-1.01;60.47;101780.41;5008144;28;20041;-66
2023/12/07 00:47:21;;;;;;;16.88;10.35;;;;;;;-1.01;61.09;101785.53;5008683;28;20033;-66
2023/12/07 00:49:47;;;;;;;18.33;9.43;;;;;;;-0.84;60.64;101785.03;5011524;28;20694;-66
2023/12/07 00:52:12;;;;;;;17.95;10.68;;;;;;;-0.76;60.51;101786.06;5009597;28;20104;-65
2023/12/07 00:54:39;;;;;;;15.48;10.18;;;;;;;-0.72;60.51;101790.44;5006781;28;20512;-64
2023/12/07 00:57:05;;;;;;;16.42;9.75;;;;;;;-0.59;60.10;101794.16;5011295;28;20639;-67
2023/12/07 00:59:37;;;;;;;16.30;10.40;;;;;;;-0.66;59.84;101793.16;5006473;28;20139;-66
2023/12/07 01:02:06;;;;;;;20.60;10.18;;;;;;;-0.72;60.36;101803.28;5010967;28;20033;-66
2023/12/07 01:04:32;;;;;;;20.52;10.60;;;;;;;-0.62;59.69;101800.06;5006607;28;20046;-66
2023/12/07 01:06:58;;;;;;;15.35;9.23;;;;;;;-0.54;59.49;101804.53;5008920;28;20055;-68
2023/12/07 01:09:24;;;;;;;17.65;9.63;;;;;;;-0.50;59.76;101803.72;5006746;28;20045;-68
2023/12/07 01:11:50;;;;;;;22.88;10.95;;;;;;;-0.56;59.56;101807.91;5011735;28;20033;-70
2023/12/07 01:14:16;;;;;;;16.80;9.63;;;;;;;-0.57;59.42;101810.47;4996718;28;20038;-69
2023/12/07 01:16:42;;;;;;;13.55;9.65;;;;;;;-0.56;59.71;101812.19;5011681;28;20029;-69
2023/12/07 01:19:08;;;;;;;15.27;8.48;;;;;;;-0.48;59.58;101812.31;5007900;28;20064;-69
2023/12/07 01:21:34;;;;;;;15.57;9.70;;;;;;;-0.46;59.08;101816.69;5008742;28;20037;-69
2023/12/07 01:23:59;;;;;;;15.88;10.00;;;;;;;-0.44;59.17;101815.00;4995438;28;20048;-69
2023/12/07 01:26:25;;;;;;;17.20;10.65;;;;;;;-0.72;59.57;101816.13;5006253;28;21823;-69
2023/12/07 01:28:50;;;;;;;16.13;9.52;;;;;;;-0.78;60.15;101810.84;5011520;28;20530;-65
2023/12/07 01:31:17;;;;;;;13.73;8.57;;;;;;;-0.67;59.68;101809.38;5010155;28;20048;-64
2023/12/07 01:33:45;;;;;;;14.50;9.40;;;;;;;-0.58;59.59;101812.13;5009661;28;20110;-65
2023/12/07 01:36:11;;;;;;;17.17;9.43;;;;;;;-0.59;59.54;101807.84;5008437;28;20044;-64
2023/12/07 01:38:37;;;;;;;22.15;10.07;;;;;;;-0.67;59.70;101809.38;5007571;28;20695;-64
2023/12/07 01:41:03;;;;;;;18.13;9.95;;;;;;;-0.67;59.77;101822.22;5009956;28;20725;-64
2023/12/07 01:43:28;;;;;;;16.40;9.95;;;;;;;-0.72;60.22;101821.25;5007663;28;20046;-64
2023/12/07 01:45:56;;;;;;;14.40;8.98;;;;;;;-0.61;59.91;101832.63;4998300;28;20033;-66
2023/12/07 01:48:26;;;;;;;16.00;9.80;;;;;;;-0.50;59.49;101829.41;5006614;28;20124;-65
2023/12/07 01:50:54;;;;;;;16.20;9.27;;;;;;;-0.45;59.71;101831.25;5025850;28;20026;-67
2023/12/07 01:53:22;;;;;;;19.30;10.15;;;;;;;-0.48;59.50;101828.63;5006294;28;20052;-68
2023/12/07 01:55:49;;;;;;;16.13;9.63;;;;;;;-0.51;59.51;101825.13;5008784;28;20037;-68
2023/12/07 01:58:17;;;;;;;21.50;10.52;;;;;;;-0.61;59.78;101829.19;5008637;28;20052;-68
2023/12/07 02:00:43;;;;;;;16.00;9.25;;;;;;;-0.72;59.90;101828.97;5007772;28;20033;-67
2023/12/07 02:03:08;;;;;;;18.10;10.40;;;;;;;-0.73;60.24;101829.78;4998782;28;20048;-67
2023/12/07 02:05:35;;;;;;;14.57;9.18;;;;;;;-0.95;60.65;101833.59;5006570;28;20037;-67
2023/12/07 02:08:00;;;;;;;17.95;8.95;;;;;;;-0.79;60.44;101835.66;4996367;28;20033;-67
2023/12/07 02:10:26;;;;;;;15.57;9.45;;;;;;;-0.89;60.43;101840.53;5005816;28;20067;-67
2023/12/07 02:12:53;;;;;;;16.77;8.90;;;;;;;-1.03;60.82;101832.53;5007703;28;20183;-67
2023/12/07 02:15:19;;;;;;;19.52;8.98;;;;;;;-0.77;60.22;101831.44;5008912;28;20855;-65
2023/12/07 02:17:59;;;;;;;13.50;8.13;;;;;;;-0.82;60.46;101833.00;5005251;28;20036;-64
2023/12/07 02:20:36;;;;;;;15.38;8.55;;;;;;;-0.74;59.90;101822.91;5007092;28;20039;-65
2023/12/07 02:23:04;;;;;;;17.30;9.00;;;;;;;-0.99;60.60;101826.63;5005588;28;20045;-65
2023/12/07 02:25:37;;;;;;;15.82;8.70;;;;;;;-0.85;60.30;101826.94;5004850;28;20691;-66
2023/12/07 02:28:02;;;;;;;12.77;8.15;;;;;;;-0.87;60.70;101823.47;5006801;28;20064;-66
2023/12/07 02:30:29;;;;;;;12.00;7.47;;;;;;;-0.82;60.39;101829.56;5006366;28;20049;-64
2023/12/07 02:32:54;;;;;;;14.10;8.32;;;;;;;-0.77;60.03;101836.56;5009515;28;20087;-66
2023/12/07 02:35:20;;;;;;;15.13;9.18;;;;;;;-0.76;59.99;101832.28;5006509;28;21287;-65
2023/12/07 02:37:49;;;;;;;13.38;8.35;;;;;;;-0.82;60.14;101832.13;4985660;28;20099;-65
2023/12/07 02:40:25;;;;;;;14.77;8.77;;;;;;;-0.66;60.07;101829.09;5008973;28;20037;-64
2023/12/07 02:42:53;;;;;;;14.43;7.78;;;;;;;-0.65;59.84;101825.69;5009077;28;20043;-65
2023/12/07 02:45:18;;;;;;;15.43;7.50;;;;;;;-0.58;59.89;101837.81;5007071;28;20427;-64
2023/12/07 02:47:45;;;;;;;12.18;7.93;;;;;;;-0.60;59.94;101834.34;5005449;28;20037;-64
2023/12/07 02:50:12;;;;;;;15.65;8.40;;;;;;;-0.99;60.53;101844.59;5014182;28;20033;-64
2023/12/07 02:52:37;;;;;;;12.40;7.15;;;;;;;-0.88;59.97;101837.16;5011713;28;20037;-68
2023/12/07 02:55:04;;;;;;;15.48;8.38;;;;;;;-0.93;60.68;101842.16;5015546;28;20699;-67
2023/12/07 02:57:30;;;;;;;18.80;9.68;;;;;;;-0.74;60.35;101840.91;5018109;28;20034;-67
2023/12/07 02:59:56;;;;;;;14.07;8.32;;;;;;;-0.83;60.40;101838.13;5015177;28;20045;-67
2023/12/07 03:02:21;;;;;;;14.80;8.52;;;;;;;-0.80;60.34;101841.59;5015108;28;20087;-66
2023/12/07 03:04:47;;;;;;;11.40;6.57;;;;;;;-0.64;59.72;101849.66;5011354;28;20045;-67
2023/12/07 03:07:13;;;;;;;12.93;7.20;;;;;;;-0.85;60.16;101843.22;5015043;28;20025;-67
2023/12/07 03:09:38;;;;;;;12.20;8.02;;;;;;;-1.01;60.64;101847.13;5009893;28;20047;-67
2023/12/07 03:12:04;;;;;;;13.40;7.63;;;;;;;-0.77;60.26;101845.97;5013286;28;20033;-67
2023/12/07 03:14:29;;;;;;;14.57;8.32;;;;;;;-1.08;61.15;101852.06;5010239;28;20044;-66
2023/12/07 03:16:55;;;;;;;16.73;7.13;;;;;;;-1.02;61.03;101845.41;5016005;28;20082;-66
2023/12/07 03:19:20;;;;;;;13.15;7.72;;;;;;;-0.82;60.36;101852.69;5011198;28;20052;-68
2023/12/07 03:21:46;;;;;;;14.60;8.25;;;;;;;-0.87;60.11;101850.00;5014206;28;20326;-67
2023/12/07 03:24:11;;;;;;;14.48;7.28;;;;;;;-0.73;60.00;101852.88;5029766;28;20038;-68
2023/12/07 03:26:37;;;;;;;15.30;7.82;;;;;;;-0.71;59.85;101851.22;5010098;28;20132;-68
2023/12/07 03:29:03;;;;;;;15.07;8.93;;;;;;;-0.56;59.49;101846.44;5014271;28;20400;-66
2023/12/07 03:31:29;;;;;;;17.42;7.80;;;;;;;-0.58;59.47;101844.66;5009212;28;20095;-66
2023/12/07 03:33:55;;;;;;;18.95;9.30;;;;;;;-0.55;59.30;101847.28;5015594;28;20442;-66
2023/12/07 03:36:21;;;;;;;15.93;8.88;;;;;;;-0.58;58.95;101845.53;5011827;28;20087;-66
2023/12/07 03:38:47;;;;;;;13.23;7.55;;;;;;;-0.65;59.81;101848.78;5010494;28;20587;-67
2023/12/07 03:41:13;;;;;;;13.25;7.40;;;;;;;-0.53;59.26;101843.06;5013869;28;20132;-66
2023/12/07 03:43:38;;;;;;;15.82;7.40;;;;;;;-0.52;59.05;101849.09;5010786;28;20048;-66
2023/12/07 03:46:05;;;;;;;13.85;8.82;;;;;;;-0.66;59.60;101848.75;5014996;28;20812;-67
2023/12/07 03:48:30;;;;;;;17.60;8.52;;;;;;;-0.60;59.60;101843.75;5009881;28;20045;-67
2023/12/07 03:50:56;;;;;;;14.32;8.23;;;;;;;-0.71;59.61;101852.94;5014654;28;20407;-67
2023/12/07 03:53:21;;;;;;;13.00;8.70;;;;;;;-0.72;60.03;101854.63;5013872;28;20045;-68
2023/12/07 03:55:47;;;;;;;12.20;7.55;;;;;;;-0.60;59.75;101860.03;5012410;28;20037;-67
2023/12/07 03:58:13;;;;;;;12.50;7.65;;;;;;;-0.61;59.42;101855.75;5012736;28;20488;-68
2023/12/07 04:00:39;;;;;;;13.23;8.07;;;;;;;-0.62;59.77;101851.41;4992585;28;21094;-68
2023/12/07 04:03:04;;;;;;;14.48;8.25;;;;;;;-0.57;59.68;101849.84;5010916;28;20068;-68
2023/12/07 04:05:30;;;;;;;14.90;8.50;;;;;;;-0.63;59.74;101849.69;5006660;28;20041;-67
2023/12/07 04:07:56;;;;;;;12.63;8.27;;;;;;;-0.68;59.76;101855.53;5011010;28;20037;-67
2023/12/07 04:10:21;;;;;;;13.32;8.05;;;;;;;-0.59;59.52;101842.94;5009941;28;20036;-68
2023/12/07 04:12:47;;;;;;;16.42;7.53;;;;;;;-0.66;59.67;101849.66;5006418;28;20041;-68
2023/12/07 04:15:12;;;;;;;13.63;7.43;;;;;;;-0.72;59.72;101846.94;5010940;28;20447;-68
2023/12/07 04:17:38;;;;;;;15.65;8.77;;;;;;;-0.67;59.94;101847.91;5004894;28;20033;-68
2023/12/07 04:20:04;;;;;;;14.32;7.90;;;;;;;-0.66;59.62;101847.06;5012700;28;20025;-65
2023/12/07 04:22:30;;;;;;;14.65;8.20;;;;;;;-0.63;59.40;101847.13;5005724;28;20037;-66
2023/12/07 04:24:55;;;;;;;12.35;7.70;;;;;;;-0.93;60.20;101849.00;5008672;28;20103;-65
2023/12/07 04:27:21;;;;;;;12.07;7.07;;;;;;;-0.68;59.75;101856.44;5010792;28;20408;-66
2023/12/07 04:29:46;;;;;;;15.45;7.70;;;;;;;-0.62;59.63;101853.13;5006273;28;20041;-68
2023/12/07 04:32:12;;;;;;;13.98;7.88;;;;;;;-0.61;59.40;101855.75;5012183;28;20069;-65
2023/12/07 04:34:37;;;;;;;14.60;7.65;;;;;;;-0.62;59.58;101861.69;5006515;28;20029;-65
2023/12/07 04:37:03;;;;;;;18.08;9.00;;;;;;;-0.65;59.54;101856.50;5004906;28;20033;-65
2023/12/07 04:39:28;;;;;;;14.40;7.68;;;;;;;-1.01;60.10;101852.25;5007579;28;20091;-64
2023/12/07 04:41:54;;;;;;;20.02;8.40;;;;;;;-0.73;59.60;101852.88;5012759;28;20037;-65
2023/12/07 04:44:20;;;;;;;15.02;8.13;;;;;;;-0.74;59.95;101856.28;5014915;28;20128;-66
2023/12/07 04:46:45;;;;;;;14.07;7.85;;;;;;;-0.72;59.36;101852.06;5007653;28;20057;-65
2023/12/07 04:49:11;;;;;;;17.75;8.82;;;;;;;-0.85;59.97;101855.19;5010734;28;20037;-66
2023/12/07 04:51:36;;;;;;;18.60;9.50;;;;;;;-0.70;59.58;101852.97;5006545;28;21534;-68
2023/12/07 04:54:02;;;;;;;15.38;8.57;;;;;;;-1.01;59.98;101859.94;5011405;28;20044;-67
2023/12/07 04:56:27;;;;;;;21.17;10.52;;;;;;;-0.74;59.78;101861.44;5007289;28;20128;-66
2023/12/07 04:58:53;;;;;;;20.95;10.32;;;;;;;-0.69;60.04;101859.81;5006350;28;20468;-66
2023/12/07 05:01:21;;;;;;;17.90;9.30;;;;;;;-0.81;59.70;101854.44;5005418;28;20042;-67
2023/12/07 05:03:47;;;;;;;14.82;8.98;;;;;;;-0.74;59.66;101864.00;5007472;28;20041;-67
2023/12/07 05:06:12;;;;;;;15.65;8.32;;;;;;;-0.81;59.91;101870.69;4997576;28;20072;-65
2023/12/07 05:08:39;;;;;;;17.48;9.82;;;;;;;-0.76;60.05;101869.09;5004257;28;20113;-67
2023/12/07 05:11:06;;;;;;;20.77;9.88;;;;;;;-0.70;59.71;101867.50;5008095;28;20033;-65
2023/12/07 05:13:33;;;;;;;15.75;9.30;;;;;;;-0.68;59.54;101876.09;5007001;28;20039;-65
2023/12/07 05:15:59;;;;;;;18.08;9.43;;;;;;;-0.88;60.20;101879.09;5010174;28;20116;-65
2023/12/07 05:18:25;;;;;;;19.10;10.15;;;;;;;-0.99;60.31;101878.81;5007154;28;20077;-66
2023/12/07 05:20:50;;;;;;;17.38;9.52;;;;;;;-1.05;60.55;101878.66;5008059;28;21289;-64
2023/12/07 05:23:17;;;;;;;20.95;9.80;;;;;;;-0.96;61.00;101880.59;5009432;28;20153;-65
2023/12/07 05:25:43;;;;;;;18.33;9.77;;;;;;;-0.88;60.22;101884.22;5002989;28;20664;-65
2023/12/07 05:28:08;;;;;;;20.25;9.43;;;;;;;-0.75;59.95;101875.09;5008817;28;20052;-64
2023/12/07 05:30:36;;;;;;;20.10;8.18;;;;;;;-0.83;60.00;101871.50;5005977;28;20119;-63
2023/12/07 05:33:01;;;;;;;17.42;8.88;;;;;;;-0.83;59.89;101879.19;5009952;28;20526;-65
2023/12/07 05:35:27;;;;;;;19.15;8.85;;;;;;;-0.76;59.71;101870.78;4990272;28;20303;-64
2023/12/07 05:37:52;;;;;;;18.67;8.77;;;;;;;-0.86;60.17;101871.41;5005261;28;20041;-63
2023/12/07 05:40:18;;;;;;;13.50;7.93;;;;;;;-0.69;59.35;101874.38;5011382;28;20125;-64
2023/12/07 05:42:44;;;;;;;15.15;9.57;;;;;;;-0.56;59.03;101874.69;5004228;28;20040;-65
2023/12/07 05:45:10;;;;;;;14.82;8.07;;;;;;;-0.59;59.14;101877.19;5010204;28;20033;-65
2023/12/07 05:47:36;;;;;;;17.73;9.38;;;;;;;-0.56;58.97;101884.09;5005301;28;20573;-64
2023/12/07 05:50:03;;;;;;;15.00;8.55;;;;;;;-0.51;58.70;101874.78;5009481;28;20079;-64
2023/12/07 05:52:29;;;;;;;22.50;8.93;;;;;;;-0.61;59.00;101881.41;5009084;28;20041;-65
2023/12/07 05:54:54;;;;;;;23.73;10.40;;;;;;;-0.63;59.26;101877.94;5004867;28;22198;-66
2023/12/07 05:57:20;;;;;;;19.52;9.65;;;;;;;-0.62;59.17;101884.81;5010764;28;20044;-68
2023/12/07 05:59:45;;;;;;;17.23;9.35;;;;;;;-0.64;58.95;101886.50;5003612;28;20049;-65
2023/12/07 06:02:11;;;;;;;17.80;8.80;;;;;;;-0.71;59.17;101876.88;5009300;28;20669;-65
2023/12/07 06:04:37;;;;;;;21.95;9.75;;;;;;;-0.97;59.90;101874.59;5001906;28;20112;-70
2023/12/07 06:07:03;;;;;;;17.40;8.50;;;;;;;-0.74;59.58;101875.97;5009410;28;20047;-67
2023/12/07 06:09:28;;;;;;;17.95;9.50;;;;;;;-0.80;59.66;101876.69;5004056;28;20050;-68
2023/12/07 06:11:55;;;;;;;22.10;10.63;;;;;;;-1.14;60.48;101875.00;5005163;28;20431;-68
2023/12/07 06:14:22;;;;;;;18.42;9.27;;;;;;;-1.13;60.74;101874.16;5010808;28;20144;-68
2023/12/07 06:16:48;;;;;;;22.83;11.13;;;;;;;-1.17;60.43;101875.78;4991868;28;20043;-67
2023/12/07 06:19:14;;;;;;;20.25;10.18;;;;;;;-1.02;60.36;101875.31;4990702;28;20037;-66
2023/12/07 06:21:39;;;;;;;16.60;8.15;;;;;;;-1.08;60.52;101873.44;5003961;28;20547;-65
2023/12/07 06:24:05;;;;;;;19.08;9.63;;;;;;;-0.88;60.14;101873.09;5009182;28;20047;-67
2023/12/07 06:26:30;;;;;;;21.08;9.57;;;;;;;-0.94;59.93;101873.81;5006187;28;20041;-68
2023/12/07 06:28:56;;;;;;;16.98;9.57;;;;;;;-0.74;59.68;101870.84;5003815;28;20185;-68
2023/12/07 06:31:21;;;;;;;17.08;8.40;;;;;;;-0.72;59.28;101876.88;5009205;28;20685;-67
2023/12/07 06:33:47;;;;;;;15.82;8.60;;;;;;;-1.40;60.99;101873.50;5004424;28;20029;-67
2023/12/07 06:36:23;;;;;;;23.27;10.88;;;;;;;-1.22;60.73;101874.78;5008005;28;20108;-67
2023/12/07 06:38:48;;;;;;;17.38;9.15;;;;;;;-1.11;60.29;101881.03;4994504;28;20041;-67
2023/12/07 06:41:15;;;;;;;18.70;10.30;;;;;;;-1.30;61.21;101876.31;5007933;28;20100;-69
2023/12/07 06:43:41;;;;;;;16.30;9.07;;;;;;;-1.14;60.85;101885.25;4985722;28;20678;-69
2023/12/07 06:46:07;;;;;;;21.48;10.52;;;;;;;-1.10;60.39;101880.22;5006634;28;20075;-71
2023/12/07 06:48:33;;;;;;;18.08;8.88;;;;;;;-1.24;60.75;101879.00;5004904;28;20136;-71
2023/12/07 06:50:59;;;;;;;16.48;8.20;;;;;;;-1.17;60.57;101880.91;5006759;28;20122;-70
2023/12/07 06:53:25;;;;;;;18.85;9.70;;;;;;;-1.16;60.55;101877.50;5006204;28;20507;-70
2023/12/07 06:55:50;;;;;;;20.38;8.48;;;;;;;-1.14;60.55;101883.53;5004484;28;20119;-71
2023/12/07 06:58:15;;;;;;;19.75;9.05;;;;;;;-1.05;60.16;101886.38;4979508;28;20041;-71
2023/12/07 07:00:41;;;;;;;15.98;7.65;;;;;;;-0.97;59.96;101882.31;4969053;28;20031;-69
2023/12/07 07:03:06;;;;;;;16.02;8.30;;;;;;;-1.03;59.90;101883.84;5006442;28;20033;-71
2023/12/07 07:05:32;;;;;;;20.48;8.88;;;;;;;-1.00;59.80;101894.19;4989802;28;20030;-70
2023/12/07 07:07:58;;;;;;;16.52;10.23;;;;;;;-0.89;59.93;101904.72;5002398;28;21197;-70
2023/12/07 07:10:24;;;;;;;16.17;8.93;;;;;;;-0.89;59.72;101907.28;5008358;28;20116;-68
2023/12/07 07:12:50;;;;;;;15.27;8.85;;;;;;;-0.82;59.57;101906.59;4997838;28;20159;-68
2023/12/07 07:15:16;;;;;;;16.95;8.40;;;;;;;-0.93;59.57;101900.31;5003827;28;20025;-68
2023/12/07 07:17:42;;;;;;;14.63;7.70;;;;;;;-0.97;59.99;101897.69;5002025;28;20600;-67
2023/12/07 07:20:09;;;;;;;14.48;8.38;;;;;;;-0.90;59.90;101903.00;5008787;28;20026;-67
2023/12/07 07:22:34;;;;;;;16.15;8.23;;;;;;;-0.79;59.51;101902.41;5009293;28;20029;-66
2023/12/07 07:25:00;;;;;;;13.43;7.20;;;;;;;-0.71;59.46;101907.69;4984364;28;21536;-69
2023/12/07 07:27:26;;;;;;;16.77;7.78;;;;;;;-0.67;59.51;101913.78;5007207;28;20057;-68
2023/12/07 07:29:52;;;;;;;16.50;8.63;;;;;;;-0.61;58.86;101919.94;5001245;28;20554;-69
2023/12/07 07:32:17;;;;;;;21.65;9.07;;;;;;;-0.63;59.15;101921.59;5007190;28;20519;-67
2023/12/07 07:34:43;;;;;;;15.80;8.90;;;;;;;-0.67;58.90;101924.06;5004038;28;20041;-67
2023/12/07 07:37:08;;;;;;;14.70;8.88;;;;;;;-0.58;59.04;101921.69;5013109;28;20079;-66
2023/12/07 07:39:34;;;;;;;19.08;9.10;;;;;;;-0.52;59.01;101919.28;5009345;28;20033;-69
2023/12/07 07:42:00;;;;;;;15.60;8.02;;;;;;;-0.52;58.54;101928.69;5006686;28;20887;-66
2023/12/07 07:44:26;;;;;;;18.58;8.98;;;;;;;-0.90;59.64;101923.53;5011378;28;20033;-71
2023/12/07 07:46:51;;;;;;;16.83;8.43;;;;;;;-0.63;59.25;101921.59;5005193;28;20570;-67
2023/12/07 07:49:17;;;;;;;18.05;8.50;;;;;;;-0.85;59.48;101929.63;4985328;28;20833;-68
2023/12/07 07:51:42;;;;;;;13.82;7.22;;;;;;;-0.60;59.53;101929.34;5005408;28;20682;-70
2023/12/07 07:54:08;;;;;;;14.45;8.15;;;;;;;-0.60;59.18;101931.94;5010967;28;20092;-67
2023/12/07 07:56:33;;;;;;;15.55;7.20;;;;;;;-0.60;59.08;101933.63;5010080;28;20037;-66
2023/12/07 07:59:00;;;;;;;14.52;8.35;;;;;;;-0.72;59.53;101931.66;5003844;28;20041;-67
2023/12/07 08:01:26;;;;;;;15.63;9.43;;;;;;;-0.59;59.42;101933.69;4993710;28;21040;-68
2023/12/07 08:03:51;;;;;;;13.68;7.03;;;;;;;-0.50;59.14;101927.00;5006392;28;20042;-68
2023/12/07 08:06:17;;;;;;;16.60;8.00;;;;;;;-0.63;59.11;101931.00;5026609;28;21042;-67
2023/12/07 08:08:42;;;;;;;15.52;8.65;;;;;;;-0.49;59.22;101924.47;5006977;28;20072;-66
2023/12/07 08:11:08;;;;;;;12.70;7.43;;;;;;;-0.62;59.03;101928.44;5011480;28;20041;-65
2023/12/07 08:13:33;;;;;;;15.90;8.02;;;;;;;-0.68;59.48;101933.47;5009051;28;20117;-67
2023/12/07 08:15:59;;;;;;;12.20;7.18;;;;;;;-0.61;59.41;101930.22;4988743;28;20247;-65
2023/12/07 08:18:25;;;;;;;14.40;7.22;;;;;;;-0.36;58.91;101930.75;4992305;28;20061;-65
2023/12/07 08:20:51;;;;;;;11.75;7.75;;;;;;;-0.58;59.29;101937.09;4988795;28;20133;-67
2023/12/07 08:23:16;;;;;;;13.90;8.55;;;;;;;-0.57;59.66;101936.28;5009794;28;20516;-69
2023/12/07 08:25:43;;;;;;;13.73;7.75;;;;;;;-0.38;59.14;101940.13;5010415;28;20029;-66
2023/12/07 08:28:09;;;;;;;12.93;7.72;;;;;;;-0.39;59.23;101935.84;5014779;28;20040;-66
2023/12/07 08:30:35;;;;;;;15.77;8.30;;;;;;;-0.40;58.70;101944.38;5012449;28;20101;-69
2023/12/07 08:33:01;;;;;;;15.43;8.10;;;;;;;-0.62;59.46;101938.72;5005974;28;20096;-69
2023/12/07 08:35:26;;;;;;;14.38;7.75;;;;;;;-0.51;59.15;101940.69;5009820;28;20060;-64
2023/12/07 08:37:52;;;;;;;15.13;8.02;;;;;;;-0.20;59.01;101942.25;5005629;28;20041;-67
2023/12/07 08:40:17;;;;;;;15.13;7.65;;;;;;;-0.32;58.62;101942.84;5000663;28;20128;-67
2023/12/07 08:42:49;;;;;;;12.68;7.25;;;;;;;-0.62;58.95;101943.00;5008345;28;20049;-67
2023/12/07 08:45:15;;;;;;;;;;;;;;;-0.37;58.79;101944.44;5010879;28;20116;-66
2023/12/07 08:47:41;;;;;;;13.32;6.40;;;;;;;-0.51;59.25;101948.41;4992705;28;20031;-66
2023/12/07 08:50:07;;;;;;;15.25;6.78;;;;;;;-0.29;58.90;101936.91;5005242;28;20037;-66
2023/12/07 08:52:33;;;;;;;14.05;6.63;;;;;;;-0.11;58.70;101945.00;5009743;28;21839;-64
2023/12/07 08:54:59;;;;;;;16.25;6.60;;;;;;;-0.15;58.52;101946.66;5001959;28;20033;-65
2023/12/07 08:57:25;;;;;;;13.35;7.22;;;;;;;-0.26;58.58;101943.00;5014614;28;20037;-64
2023/12/07 08:59:50;;;;;;;12.52;6.13;;;;;;;-0.09;57.90;101945.06;5005625;28;20124;-64
2023/12/07 09:02:16;;;;;;;14.75;7.57;;;;;;;0.05;58.28;101938.50;4993166;28;20026;-65
2023/12/07 09:04:42;;;;;;;13.23;6.88;;;;;;;-0.36;58.46;101935.91;5009526;28;20124;-65
2023/12/07 09:07:09;;;;;;;14.80;6.50;;;;;;;-0.28;58.54;101933.50;4989827;28;20778;-65
2023/12/07 09:09:34;;;;;;;10.60;6.20;;;;;;;-0.20;58.68;101930.25;5009625;28;20715;-66
2023/12/07 09:12:00;;;;;;;13.60;6.63;;;;;;;0.18;58.42;101930.19;5008462;28;20037;-65
2023/12/07 09:14:26;;;;;;;14.88;7.28;;;;;;;0.32;58.23;101947.59;4989000;28;20065;-64
2023/12/07 09:16:52;;;;;;;15.57;6.95;;;;;;;0.28;57.25;101952.69;4985628;28;20635;-65
2023/12/07 09:19:18;;;;;;;13.23;6.72;;;;;;;0.23;57.82;101945.72;4995428;28;20033;-65
2023/12/07 09:21:43;;;;;;;13.90;7.35;;;;;;;0.31;57.26;101948.44;5008870;28;20117;-65
2023/12/07 09:24:09;;;;;;;16.33;7.70;;;;;;;0.23;57.13;101946.59;5002265;28;21679;-64
2023/12/07 09:26:35;;;;;;;16.05;7.55;;;;;;;0.01;57.89;101939.25;5006293;28;20064;-65
2023/12/07 09:29:00;;;;;;;16.65;7.68;;;;;;;0.08;58.09;101951.44;5003695;28;20381;-64
2023/12/07 09:31:27;;;;;;;12.55;7.22;;;;;;;0.23;57.81;101944.03;5008527;28;20037;-64
2023/12/07 09:33:53;;;;;;;13.82;7.60;;;;;;;0.47;57.87;101942.75;5003747;28;20092;-64
2023/12/07 09:36:21;;;;;;;14.38;7.63;;;;;;;0.49;57.22;101947.09;5007376;28;20033;-65
2023/12/07 09:38:47;;;;;;;17.83;8.52;;;;;;;0.68;57.12;101948.31;5008736;28;20045;-64
2023/12/07 09:41:13;;;;;;;16.98;8.75;;;;;;;0.78;57.34;101953.63;5002542;28;20021;-65
2023/12/07 09:43:39;;;;;;;16.58;8.95;;;;;;;0.77;57.07;101954.44;5005860;28;20038;-65
2023/12/07 09:46:06;;;;;;;15.60;7.57;;;;;;;0.78;57.11;101958.78;4999399;28;20091;-65
2023/12/07 09:48:31;;;;;;;18.75;9.45;;;;;;;0.84;57.11;101951.16;5007852;28;20518;-64
2023/12/07 09:51:00;;;;;;;14.38;7.53;;;;;;;0.94;57.02;101950.47;5003038;28;20116;-65
2023/12/07 09:53:29;;;;;;;11.68;6.40;;;;;;;1.02;56.76;101953.19;5004527;28;20045;-65
2023/12/07 09:55:54;;;;;;;17.08;6.63;;;;;;;0.99;56.53;101959.16;5013977;28;20085;-64
2023/12/07 09:58:19;;;;;;;13.68;6.85;;;;;;;0.94;56.29;101965.91;5006880;28;20056;-65
2023/12/07 10:00:47;;;;;;;11.95;5.97;;;;;;;0.89;56.42;101968.41;5010449;28;20057;-64
2023/12/07 10:03:25;;;;;;;10.00;6.07;;;;;;;0.89;56.09;101967.56;5004117;28;20682;-65
2023/12/07 10:05:59;;;;;;;10.45;6.15;;;;;;;0.94;56.49;101965.06;5009319;28;20036;-65
2023/12/07 10:08:28;;;;;;;9.07;6.03;;;;;;;0.88;56.39;101960.66;5006822;28;20043;-64
2023/12/07 10:11:12;;;;;;;11.73;5.72;;;;;;;1.01;56.67;101957.44;5005981;28;20184;-64
2023/12/07 10:13:38;;;;;;;8.68;5.03;;;;;;;0.68;55.69;101953.47;5009079;28;20038;-65
2023/12/07 10:16:10;;;;;;;8.70;5.75;;;;;;;1.03;56.25;101958.34;5003594;28;20021;-65
2023/12/07 10:18:36;;;;;;;9.77;5.40;;;;;;;1.10;56.14;101951.59;5008646;28;20381;-65
2023/12/07 10:21:02;;;;;;;11.35;6.40;;;;;;;1.21;55.91;101949.19;5003985;28;20514;-65
2023/12/07 10:23:28;;;;;;;13.57;6.25;;;;;;;1.29;55.30;101945.06;5009998;28;20099;-65
2023/12/07 10:25:54;;;;;;;11.23;5.78;;;;;;;1.29;55.06;101945.06;5006146;28;20038;-65
2023/12/07 10:28:21;;;;;;;9.50;5.30;;;;;;;1.22;55.02;101944.09;5008253;28;20492;-66
2023/12/07 10:30:46;;;;;;;11.40;6.45;;;;;;;1.13;55.12;101941.38;5011289;28;20495;-65
2023/12/07 10:33:13;;;;;;;11.07;5.95;;;;;;;1.08;55.00;101943.88;5002808;28;20118;-64
2023/12/07 10:35:39;;;;;;;9.18;5.82;;;;;;;1.00;55.39;101940.28;4993089;28;20033;-65
2023/12/07 10:38:05;;;;;;;12.10;6.18;;;;;;;0.91;55.32;101945.28;5002669;28;20045;-65
2023/12/07 10:40:30;;;;;;;11.48;6.38;;;;;;;0.86;55.57;101946.91;5010577;28;20585;-65
2023/12/07 10:42:58;;;;;;;10.15;6.10;;;;;;;0.93;55.88;101938.47;5002352;28;20029;-65
2023/12/07 10:45:29;;;;;;;11.85;5.80;;;;;;;1.00;55.81;101931.69;5009207;28;20042;-65
2023/12/07 10:48:02;;;;;;;11.38;5.57;;;;;;;1.02;55.25;101928.31;5003529;28;20115;-65
2023/12/07 10:50:32;;;;;;;14.23;6.57;;;;;;;0.99;55.40;101933.41;5024823;28;20562;-64
2023/12/07 10:53:04;;;;;;;11.80;5.78;;;;;;;0.90;55.54;101940.97;5000382;28;20241;-65
2023/12/07 10:55:33;;;;;;;;;;;;;;;0.99;55.96;101929.94;5006972;28;20040;-65
2023/12/07 10:58:00;;;;;;;11.40;5.50;;;;;;;1.11;55.86;101920.72;5001325;28;19932;-65
2023/12/07 11:00:27;;;;;;;12.05;4.90;;;;;;;1.17;55.77;101925.13;5010313;28;20408;-64
2023/12/07 11:02:53;;;;;;;13.63;6.15;;;;;;;1.24;54.88;101929.53;4989881;28;20044;-64
2023/12/07 11:05:19;;;;;;;10.50;5.82;;;;;;;1.37;54.68;101922.81;5003793;28;20026;-65
2023/12/07 11:08:06;;;;;;;11.55;5.90;;;;;;;1.46;54.40;101904.09;4995895;28;20042;-65
2023/12/07 11:10:54;;;;;;;10.57;5.80;;;;;;;1.38;54.84;101914.28;5014069;28;20040;-65
2023/12/07 11:13:30;;;;;;;10.27;5.45;;;;;;;1.44;54.45;101908.38;5005886;28;21023;-65
2023/12/07 11:15:57;;;;;;;10.32;6.20;;;;;;;1.52;54.09;101905.06;5011847;28;20065;-65